Time;durP1;ratioP1;P1;durP2;ratioP2;P2;SDS_P1;SDS_P2;PMS_P1;PMS_P2;Temp;Humidity;BMP_temperature;BMP_pressure;BME280_temperature;BME280_humidity;BME280_pressure;Samples;Min_cycle;Max_cycle;Signal;HPM_P1;HPM_P2
2022/02/16 00:00:10;;;;;;;8.98;3.45;;;;;;;-0.64;100.00;100535.91;4968305;28;20065;-61
2022/02/16 00:03:00;;;;;;;6.75;3.10;;;;;;;-0.84;100.00;100529.97;4977561;28;20081;-62
2022/02/16 00:05:44;;;;;;;7.60;3.33;;;;;;;-0.66;100.00;100542.78;4972241;28;20601;-62
2022/02/16 00:08:29;;;;;;;6.93;3.25;;;;;;;-0.51;100.00;100530.31;4975686;28;20069;-63
2022/02/16 00:11:17;;;;;;;6.88;3.65;;;;;;;-0.37;100.00;100532.59;4963123;28;20074;-64
2022/02/16 00:14:02;;;;;;;10.02;3.17;;;;;;;-0.29;100.00;100528.53;4988739;28;20045;-62
2022/02/16 00:16:46;;;;;;;11.80;3.70;;;;;;;-0.39;100.00;100528.16;4987283;28;20061;-62
2022/02/16 00:19:31;;;;;;;7.03;2.97;;;;;;;-0.50;100.00;100530.38;4969506;28;20427;-60
2022/02/16 00:22:16;;;;;;;11.13;3.72;;;;;;;-0.48;100.00;100533.03;4977792;28;20058;-61
2022/02/16 00:25:00;;;;;;;9.30;3.90;;;;;;;-0.76;100.00;100486.88;4975454;28;20089;-63
2022/02/16 00:27:45;;;;;;;9.55;3.65;;;;;;;-0.67;100.00;100530.63;4998133;28;20064;-62
2022/02/16 00:30:30;;;;;;;10.38;3.95;;;;;;;-0.66;100.00;100520.22;4975580;28;20430;-62
2022/02/16 00:33:14;;;;;;;10.18;3.75;;;;;;;-0.57;100.00;100531.00;4982190;28;20044;-61
2022/02/16 00:35:59;;;;;;;13.35;3.22;;;;;;;-0.74;100.00;100493.03;4983809;28;20065;-62
2022/02/16 00:38:43;;;;;;;9.47;3.77;;;;;;;-0.61;100.00;100521.31;4988501;28;20422;-63
2022/02/16 00:41:28;;;;;;;8.75;4.07;;;;;;;-0.66;100.00;100517.63;4989495;28;20824;-61
2022/02/16 00:44:13;;;;;;;10.35;3.50;;;;;;;-0.64;100.00;100500.34;4988999;28;20084;-62
2022/02/16 00:46:57;;;;;;;9.82;3.63;;;;;;;-0.69;100.00;100506.22;4981123;28;20053;-61
2022/02/16 00:49:42;;;;;;;11.68;3.88;;;;;;;-0.58;100.00;100513.59;4968217;28;20065;-62
2022/02/16 00:52:28;;;;;;;8.90;3.83;;;;;;;-0.52;100.00;100503.38;4977651;28;20057;-61
2022/02/16 00:55:12;;;;;;;8.65;3.50;;;;;;;-0.50;100.00;100499.13;4984574;28;20418;-63
2022/02/16 00:57:58;;;;;;;11.80;4.00;;;;;;;-0.86;100.00;100458.75;4979263;28;20109;-61
2022/02/16 01:00:47;;;;;;;10.63;3.95;;;;;;;-0.47;100.00;100499.22;4966297;28;20064;-61
2022/02/16 01:03:32;;;;;;;8.35;3.65;;;;;;;-0.75;100.00;100443.53;4963645;28;20423;-59
2022/02/16 01:06:18;;;;;;;7.88;3.63;;;;;;;-0.26;100.00;100488.66;4963888;28;20128;-65
2022/02/16 01:09:03;;;;;;;13.20;3.50;;;;;;;-0.25;100.00;100477.41;4974480;28;20092;-62
2022/02/16 01:11:47;;;;;;;12.60;4.15;;;;;;;-0.23;100.00;100479.22;4988237;28;20415;-61
2022/02/16 01:14:33;;;;;;;11.68;3.78;;;;;;;-0.47;100.00;100467.97;4970139;28;20117;-63
2022/02/16 01:17:31;;;;;;;12.13;4.03;;;;;;;-0.48;100.00;100468.81;4957062;28;20061;-61
2022/02/16 01:20:42;;;;;;;11.75;3.90;;;;;;;-0.50;100.00;100466.97;4943995;29;20094;-63
2022/02/16 01:23:30;;;;;;;9.85;3.72;;;;;;;-0.99;100.00;100417.50;4942249;29;20058;-63
2022/02/16 01:26:17;;;;;;;8.95;4.18;;;;;;;-0.93;100.00;100411.63;4936436;28;20428;-61
2022/02/16 01:29:08;;;;;;;9.32;3.75;;;;;;;-0.87;100.00;100462.19;4933196;29;20442;-63
2022/02/16 01:31:59;;;;;;;9.82;3.30;;;;;;;-1.07;100.00;100455.38;4920896;29;20132;-61
2022/02/16 01:34:44;;;;;;;9.38;3.83;;;;;;;-1.16;100.00;100439.44;4946472;29;20054;-61
2022/02/16 01:37:29;;;;;;;7.82;3.58;;;;;;;-1.01;100.00;100452.13;4947277;28;20124;-61
2022/02/16 01:40:15;;;;;;;8.38;3.78;;;;;;;-1.12;100.00;100445.63;4927881;28;20162;-61
2022/02/16 01:43:03;;;;;;;8.70;3.40;;;;;;;-1.09;100.00;100436.22;4961604;28;20109;-59
2022/02/16 01:45:59;;;;;;;10.00;3.72;;;;;;;-1.09;100.00;100450.94;4907468;29;20058;-61
2022/02/16 01:48:45;;;;;;;8.15;3.70;;;;;;;-1.22;100.00;100447.00;4923044;29;20065;-63
2022/02/16 01:51:30;;;;;;;9.35;3.63;;;;;;;-1.15;100.00;100453.34;4938137;28;20046;-60
2022/02/16 01:54:15;;;;;;;9.00;3.40;;;;;;;-1.11;100.00;100458.69;4936686;29;20975;-63
2022/02/16 01:57:02;;;;;;;8.23;3.60;;;;;;;-1.19;100.00;100446.25;4950436;28;20456;-63
2022/02/16 01:59:54;;;;;;;9.52;4.00;;;;;;;-1.21;100.00;100440.09;4986347;28;20418;-63
2022/02/16 02:02:59;;;;;;;10.98;3.75;;;;;;;-1.40;100.00;100433.31;4946536;29;20139;-63
2022/02/16 02:06:02;;;;;;;10.90;4.03;;;;;;;-1.44;100.00;100427.94;4948078;29;20053;-63
2022/02/16 02:08:47;;;;;;;10.48;4.30;;;;;;;-1.43;100.00;100432.31;4935345;29;20053;-61
2022/02/16 02:11:32;;;;;;;14.13;4.78;;;;;;;-1.47;100.00;100417.41;4929363;28;20422;-63
2022/02/16 02:14:27;;;;;;;12.82;5.03;;;;;;;-1.36;100.00;100426.50;4934788;29;20155;-64
2022/02/16 02:17:23;;;;;;;15.10;5.05;;;;;;;-1.55;100.00;100414.53;4902748;29;20496;-64
2022/02/16 02:20:27;;;;;;;15.50;4.90;;;;;;;-1.60;100.00;100413.50;4916839;29;20138;-63
2022/02/16 02:23:13;;;;;;;18.60;5.70;;;;;;;-1.87;100.00;100364.75;4936258;29;20058;-62
2022/02/16 02:25:58;;;;;;;14.75;5.30;;;;;;;-1.65;100.00;100407.25;4941122;29;20070;-65
2022/02/16 02:28:44;;;;;;;22.80;7.00;;;;;;;-1.62;100.00;100412.53;4943217;29;20114;-62
2022/02/16 02:31:35;;;;;;;16.15;5.30;;;;;;;-1.53;100.00;100405.09;4927790;29;20054;-62
2022/02/16 02:34:20;;;;;;;15.18;5.10;;;;;;;-1.56;100.00;100401.47;4936485;29;20067;-63
2022/02/16 02:37:05;;;;;;;18.10;5.40;;;;;;;-1.66;100.00;100373.38;4946614;29;20138;-61
2022/02/16 02:39:50;;;;;;;13.07;5.30;;;;;;;-1.50;100.00;100402.59;4961871;28;20540;-61
2022/02/16 02:42:39;;;;;;;18.77;5.43;;;;;;;-1.52;100.00;100404.25;4962645;28;20086;-60
2022/02/16 02:45:24;;;;;;;13.10;5.28;;;;;;;-1.65;100.00;100383.84;4968468;28;20166;-63
2022/02/16 02:48:09;;;;;;;20.50;5.07;;;;;;;-1.92;100.00;100345.50;4984309;28;20474;-62
2022/02/16 02:50:54;;;;;;;17.30;5.50;;;;;;;-1.83;100.00;100357.16;4978813;28;20113;-62
2022/02/16 02:53:40;;;;;;;15.27;6.18;;;;;;;-1.61;100.00;100393.53;4947262;28;20052;-63
2022/02/16 02:56:26;;;;;;;15.40;5.93;;;;;;;-1.60;100.00;100405.69;4973152;28;20068;-64
2022/02/16 02:59:10;;;;;;;16.45;5.35;;;;;;;-1.56;100.00;100396.28;4991190;28;20045;-62
2022/02/16 03:01:55;;;;;;;22.10;5.78;;;;;;;-1.51;100.00;100399.94;4968783;28;20058;-62
2022/02/16 03:04:39;;;;;;;21.48;6.13;;;;;;;-1.68;100.00;100356.81;4965851;28;20066;-62
2022/02/16 03:07:24;;;;;;;14.40;5.03;;;;;;;-1.79;100.00;100345.13;4985440;28;20068;-59
2022/02/16 03:10:09;;;;;;;19.70;5.82;;;;;;;-1.41;100.00;100397.75;4980280;28;20065;-63
2022/02/16 03:12:54;;;;;;;19.13;5.95;;;;;;;-1.46;100.00;100377.59;4983635;28;20111;-62
2022/02/16 03:15:40;;;;;;;16.05;6.07;;;;;;;-1.45;100.00;100376.78;4972967;28;20075;-62
2022/02/16 03:18:25;;;;;;;15.88;5.53;;;;;;;-1.73;100.00;100329.78;4966505;28;20525;-66
2022/02/16 03:21:09;;;;;;;21.30;6.03;;;;;;;-1.44;100.00;100391.53;4969247;28;20114;-62
2022/02/16 03:23:54;;;;;;;17.98;6.20;;;;;;;-1.52;100.00;100372.16;4960637;28;20470;-61
2022/02/16 03:26:39;;;;;;;15.07;5.72;;;;;;;-1.50;100.00;100378.31;4960719;28;20528;-63
2022/02/16 03:29:25;;;;;;;15.43;5.80;;;;;;;-1.57;100.00;100361.63;4975101;28;20057;-61
2022/02/16 03:32:15;;;;;;;11.48;4.55;;;;;;;-1.56;100.00;100373.78;4954136;28;20142;-63
2022/02/16 03:35:01;;;;;;;16.85;5.63;;;;;;;-1.55;100.00;100375.53;4966908;28;20566;-63
2022/02/16 03:37:46;;;;;;;11.88;5.40;;;;;;;-1.59;100.00;100377.97;4965138;28;20053;-64
2022/02/16 03:40:33;;;;;;;15.15;5.63;;;;;;;-1.99;100.00;100310.63;4970427;28;20581;-62
2022/02/16 03:43:19;;;;;;;17.00;6.15;;;;;;;-1.60;100.00;100379.69;4990387;28;20053;-60
2022/02/16 03:46:03;;;;;;;20.13;6.88;;;;;;;-1.85;100.00;100321.53;4968488;28;20128;-62
2022/02/16 03:48:53;;;;;;;18.58;6.45;;;;;;;-1.84;100.00;100308.59;4984735;28;20181;-61
2022/02/16 03:51:38;;;;;;;17.25;5.95;;;;;;;-1.79;100.00;100334.75;4980082;28;20057;-60
2022/02/16 03:54:24;;;;;;;13.38;6.22;;;;;;;-1.69;100.00;100358.56;4986850;28;20169;-62
2022/02/16 03:57:08;;;;;;;15.45;5.68;;;;;;;-1.59;100.00;100367.56;4987054;28;20148;-60
2022/02/16 03:59:53;;;;;;;11.98;5.85;;;;;;;-1.62;100.00;100355.34;4980687;28;20093;-62
2022/02/16 04:02:57;;;;;;;19.33;6.00;;;;;;;-1.41;100.00;100374.34;4970297;28;20049;-64
2022/02/16 04:05:42;;;;;;;16.33;6.28;;;;;;;-1.33;100.00;100369.41;4965468;28;20105;-62
2022/02/16 04:08:28;;;;;;;15.95;5.57;;;;;;;-1.43;100.00;100363.00;4957244;28;20089;-62
2022/02/16 04:11:13;;;;;;;17.05;6.30;;;;;;;-1.39;100.00;100363.97;4982740;28;20500;-64
2022/02/16 04:14:00;;;;;;;16.30;5.90;;;;;;;-1.39;100.00;100357.06;4967602;28;20236;-62
2022/02/16 04:16:46;;;;;;;19.65;6.72;;;;;;;-1.55;100.00;100354.75;4972349;28;20049;-63
2022/02/16 04:19:32;;;;;;;20.02;6.32;;;;;;;-1.41;100.00;100353.56;4965656;28;20487;-60
2022/02/16 04:22:18;;;;;;;17.52;6.07;;;;;;;-1.27;100.00;100357.50;4954450;28;20427;-61
2022/02/16 04:25:03;;;;;;;12.85;5.18;;;;;;;-1.40;100.00;100357.91;4968005;28;20135;-63
2022/02/16 04:27:48;;;;;;;18.70;6.10;;;;;;;-1.38;100.00;100358.84;4985335;28;20084;-60
2022/02/16 04:30:34;;;;;;;18.60;7.00;;;;;;;-1.38;100.00;100352.78;4984979;28;20049;-61
2022/02/16 04:33:21;;;;;;;14.15;6.75;;;;;;;-1.80;100.00;100304.38;4970954;28;20056;-60
2022/02/16 04:36:06;;;;;;;14.77;5.57;;;;;;;-1.62;100.00;100350.13;4966489;28;20053;-63
2022/02/16 04:38:50;;;;;;;15.45;6.25;;;;;;;-1.61;100.00;100353.63;4967562;28;20066;-62
2022/02/16 04:41:36;;;;;;;15.70;7.22;;;;;;;-1.62;100.00;100362.28;4977196;28;20062;-61
2022/02/16 04:44:24;;;;;;;14.82;4.90;;;;;;;-1.73;100.00;100354.06;4985166;28;20574;-61
2022/02/16 04:47:16;;;;;;;14.65;6.22;;;;;;;-1.63;100.00;100361.38;4983298;28;20064;-60
2022/02/16 04:50:03;;;;;;;19.08;7.28;;;;;;;-1.66;100.00;100363.84;4978169;28;20527;-61
2022/02/16 04:52:49;;;;;;;16.75;6.70;;;;;;;-1.67;100.00;100369.00;4973000;28;20910;-62
2022/02/16 04:55:44;;;;;;;18.00;6.18;;;;;;;-1.60;100.00;100371.00;4971036;28;20077;-68
2022/02/16 04:58:34;;;;;;;21.73;6.05;;;;;;;-1.71;100.00;100357.59;4963321;28;20510;-61
2022/02/16 05:01:20;;;;;;;18.02;7.05;;;;;;;-1.63;100.00;100363.06;4984155;28;20048;-58
2022/02/16 05:04:08;;;;;;;23.90;7.30;;;;;;;-2.06;100.00;100307.75;4982634;28;20045;-58
2022/02/16 05:06:53;;;;;;;22.02;7.63;;;;;;;-1.68;100.00;100359.44;4955452;28;20072;-61
2022/02/16 05:09:37;;;;;;;19.05;6.55;;;;;;;-1.70;100.00;100358.50;4961046;28;20419;-65
2022/02/16 05:12:22;;;;;;;22.00;6.93;;;;;;;-1.73;100.00;100355.78;4972304;28;20058;-62
2022/02/16 05:15:08;;;;;;;22.00;8.18;;;;;;;-1.69;100.00;100362.88;4956442;28;20053;-63
2022/02/16 05:17:54;;;;;;;25.00;6.97;;;;;;;-1.68;100.00;100354.22;4973632;28;20162;-62
2022/02/16 05:21:01;;;;;;;25.90;8.40;;;;;;;-1.87;100.00;100312.78;4960409;28;20058;-61
2022/02/16 05:23:47;;;;;;;20.05;7.68;;;;;;;-1.55;100.00;100370.34;4946431;28;20053;-61
2022/02/16 05:26:35;;;;;;;34.22;8.40;;;;;;;-1.67;100.00;100379.38;4967506;28;20073;-62
2022/02/16 05:29:20;;;;;;;17.02;6.78;;;;;;;-1.75;100.00;100378.22;4984873;28;20081;-60
2022/02/16 05:32:12;;;;;;;22.70;7.20;;;;;;;-1.79;100.00;100376.31;4960814;28;20072;-63
2022/02/16 05:34:56;;;;;;;17.63;7.07;;;;;;;-1.86;100.00;100372.59;4969057;28;20574;-64
2022/02/16 05:37:43;;;;;;;18.75;7.05;;;;;;;-1.94;100.00;100374.03;4981436;28;20699;-62
2022/02/16 05:40:27;;;;;;;;;;;;;;;-1.86;100.00;100382.13;4966650;28;20422;-62
2022/02/16 05:43:17;;;;;;;17.00;7.25;;;;;;;-2.10;100.00;100363.88;4984107;28;20017;-62
2022/02/16 05:46:03;;;;;;;20.88;6.28;;;;;;;-2.31;100.00;100320.59;4978244;28;20542;-62
2022/02/16 05:48:48;;;;;;;20.65;7.53;;;;;;;-2.28;100.00;100324.22;4979131;28;20172;-60
2022/02/16 05:51:32;;;;;;;16.05;7.10;;;;;;;-1.95;100.00;100380.06;4964202;28;20057;-61
2022/02/16 05:54:17;;;;;;;20.27;7.38;;;;;;;-1.97;100.00;100384.28;4981665;28;20096;-60
2022/02/16 05:57:02;;;;;;;20.15;7.93;;;;;;;-1.85;100.00;100383.91;4987588;28;20061;-60
2022/02/16 05:59:47;;;;;;;16.60;7.18;;;;;;;-1.89;100.00;100397.59;4987441;28;20053;-62
2022/02/16 06:02:32;;;;;;;17.73;7.38;;;;;;;-1.90;100.00;100391.50;4990064;28;20092;-62
2022/02/16 06:05:16;;;;;;;18.00;7.40;;;;;;;-1.89;100.00;100392.41;4978749;28;20048;-66
2022/02/16 06:08:03;;;;;;;27.45;8.10;;;;;;;-1.82;100.00;100379.69;4966014;28;20053;-64
2022/02/16 06:10:48;;;;;;;23.08;7.65;;;;;;;-2.18;100.00;100326.31;4969589;28;20202;-64
2022/02/16 06:13:34;;;;;;;24.98;9.07;;;;;;;-1.88;100.00;100373.38;4954170;28;20073;-65
2022/02/16 06:16:19;;;;;;;26.15;8.05;;;;;;;-2.02;100.00;100352.06;4981551;28;20088;-63
2022/02/16 06:19:05;;;;;;;22.95;7.57;;;;;;;-2.14;100.00;100337.72;4977967;28;20109;-64
2022/02/16 06:21:52;;;;;;;25.27;7.95;;;;;;;-1.95;100.00;100381.75;4973510;28;20129;-61
2022/02/16 06:24:36;;;;;;;26.08;8.30;;;;;;;-1.80;100.00;100382.34;4954834;28;20056;-63
2022/02/16 06:27:22;;;;;;;25.20;8.85;;;;;;;-1.95;100.00;100330.69;4982592;28;20077;-63
2022/02/16 06:30:08;;;;;;;24.23;8.95;;;;;;;-1.63;100.00;100386.47;4981950;28;20084;-64
2022/02/16 06:33:10;;;;;;;17.83;7.82;;;;;;;-1.88;100.00;100326.59;4960466;28;20053;-59
2022/02/16 06:35:56;;;;;;;21.58;8.38;;;;;;;-1.84;100.00;100334.59;4959951;28;20128;-58
2022/02/16 06:38:40;;;;;;;20.27;7.93;;;;;;;-1.54;100.00;100372.09;4983471;28;20053;-56
2022/02/16 06:41:29;;;;;;;20.90;7.13;;;;;;;-1.64;100.00;100372.59;4984775;28;20068;-62
2022/02/16 06:44:14;;;;;;;22.88;8.75;;;;;;;-1.52;100.00;100354.88;4965447;28;20049;-67
2022/02/16 06:46:59;;;;;;;26.25;8.40;;;;;;;-1.40;100.00;100357.00;4938428;28;20057;-64
2022/02/16 06:49:45;;;;;;;19.73;7.30;;;;;;;-1.44;100.00;100358.63;4957947;28;20052;-65
2022/02/16 06:52:30;;;;;;;18.85;7.97;;;;;;;-1.63;100.00;100314.59;4949379;28;20534;-64
2022/02/16 06:55:15;;;;;;;20.25;7.97;;;;;;;-1.59;100.00;100305.16;4961483;28;20164;-63
2022/02/16 06:58:04;;;;;;;21.88;8.35;;;;;;;-1.48;100.00;100322.94;4971894;28;20057;-66
2022/02/16 07:00:49;;;;;;;25.60;9.45;;;;;;;-1.17;100.00;100354.44;4973573;28;20061;-65
2022/02/16 07:03:33;;;;;;;19.40;8.50;;;;;;;-1.16;100.00;100344.88;4969238;28;20053;-58
2022/02/16 07:06:30;;;;;;;;;;;;;;;-0.99;100.00;100351.59;4975740;28;20053;-60
2022/02/16 07:09:16;;;;;;;20.00;8.60;;;;;;;-1.10;100.00;100338.16;4967938;28;19928;-61
2022/02/16 07:12:04;;;;;;;18.02;7.40;;;;;;;-1.08;100.00;100351.25;4977929;28;20092;-61
2022/02/16 07:14:53;;;;;;;24.58;8.20;;;;;;;-1.31;100.00;100287.13;4979681;28;20105;-60
2022/02/16 07:17:42;;;;;;;25.02;9.40;;;;;;;-1.16;100.00;100309.34;4966062;28;20565;-62
2022/02/16 07:20:28;;;;;;;23.15;9.85;;;;;;;-0.97;100.00;100308.25;4976270;28;20109;-62
2022/02/16 07:23:12;;;;;;;21.20;9.35;;;;;;;-0.62;100.00;100328.56;4970263;28;20053;-74
2022/02/16 07:25:57;;;;;;;31.67;9.60;;;;;;;-0.39;100.00;100338.88;4980276;28;20142;-64
2022/02/16 07:28:47;;;;;;;26.25;10.48;;;;;;;-0.44;100.00;100295.28;4954589;28;20637;-65
2022/02/16 07:31:34;;;;;;;27.50;9.23;;;;;;;-0.12;100.00;100347.56;4919817;28;20057;-62
2022/02/16 07:34:19;;;;;;;26.60;10.00;;;;;;;-0.11;100.00;100343.25;4941699;28;20058;-66
2022/02/16 07:37:04;;;;;;;30.08;10.68;;;;;;;-0.01;100.00;100350.50;4941953;28;20592;-54
2022/02/16 07:39:50;;;;;;;28.95;9.95;;;;;;;-0.08;100.00;100306.84;4946163;28;20057;-62
2022/02/16 07:42:35;;;;;;;25.55;10.95;;;;;;;0.26;100.00;100350.44;4935140;28;20646;-63
2022/02/16 07:45:38;;;;;;;29.67;10.50;;;;;;;0.17;100.00;100331.09;4960509;28;20053;-58
2022/02/16 07:48:25;;;;;;;25.20;10.55;;;;;;;0.20;100.00;100345.97;4926959;28;20067;-59
2022/02/16 07:51:11;;;;;;;28.20;10.65;;;;;;;0.09;100.00;100339.53;4940481;28;20053;-65
2022/02/16 07:54:14;;;;;;;26.50;10.30;;;;;;;0.45;100.00;100347.53;4952845;28;20093;-67
2022/02/16 07:57:04;;;;;;;28.58;9.77;;;;;;;0.54;100.00;100334.75;4938865;28;20066;-61
2022/02/16 07:59:49;;;;;;;;;;;;;;;0.49;100.00;100324.22;4938122;28;20077;-63
2022/02/16 08:02:34;;;;;;;31.00;10.48;;;;;;;0.48;100.00;100319.84;4946167;28;19972;-63
2022/02/16 08:05:21;;;;;;;27.83;11.07;;;;;;;0.40;100.00;100313.53;4931061;28;20792;-63
2022/02/16 08:08:07;;;;;;;30.13;10.68;;;;;;;0.54;100.00;100322.59;4924428;28;20046;-68
2022/02/16 08:10:51;;;;;;;27.95;11.57;;;;;;;0.65;100.00;100315.06;4938087;28;20055;-68
2022/02/16 08:13:37;;;;;;;33.00;11.23;;;;;;;0.96;100.00;100313.34;4926643;28;20054;-62
2022/02/16 08:16:31;;;;;;;24.38;10.55;;;;;;;2.94;100.00;100276.03;4948055;28;20434;-56
2022/02/16 08:19:23;;;;;;;25.67;10.80;;;;;;;4.79;100.00;100305.06;4938647;28;20121;-65
2022/02/16 08:22:09;;;;;;;22.80;9.63;;;;;;;5.58;100.00;100309.34;4917545;28;20055;-59
2022/02/16 08:24:55;;;;;;;22.55;10.27;;;;;;;6.24;100.00;100310.75;4929802;28;20093;-59
2022/02/16 08:27:59;;;;;;;22.70;10.20;;;;;;;7.08;97.29;100303.19;4954632;28;20500;-61
2022/02/16 08:30:44;;;;;;;20.65;10.40;;;;;;;7.03;91.33;100301.41;4923672;28;20096;-61
2022/02/16 08:33:34;;;;;;;20.83;9.90;;;;;;;6.85;89.55;100320.69;4932660;29;20046;-61
2022/02/16 08:36:24;;;;;;;18.48;9.82;;;;;;;7.94;87.49;100305.88;4938393;28;20502;-60
2022/02/16 08:39:09;;;;;;;25.50;10.30;;;;;;;8.20;83.01;100317.28;4939905;28;20098;-63
2022/02/16 08:41:54;;;;;;;22.02;10.95;;;;;;;8.45;84.33;100319.03;4960969;28;20126;-60
2022/02/16 08:44:39;;;;;;;21.15;10.38;;;;;;;8.01;79.77;100290.03;4939848;28;20097;-58
2022/02/16 08:47:25;;;;;;;;;;;;;;;9.32;78.97;100305.38;4940745;28;20050;-61
2022/02/16 08:50:11;;;;;;;;;;;;;;;9.69;77.90;100317.47;4943669;28;19917;-61
2022/02/16 08:52:55;;;;;;;25.17;12.20;;;;;;;9.45;74.80;100296.47;4932335;28;19964;-58
2022/02/16 08:55:39;;;;;;;21.35;11.55;;;;;;;9.43;72.22;100298.28;4944191;28;20293;-60
2022/02/16 08:58:25;;;;;;;23.20;12.60;;;;;;;10.27;69.92;100299.31;4965551;28;20041;-64
2022/02/16 09:01:25;;;;;;;21.95;11.80;;;;;;;10.13;69.36;100291.50;4945430;28;20047;-59
2022/02/16 09:04:10;;;;;;;22.95;11.32;;;;;;;9.69;70.32;100300.72;4951632;28;20050;-64
2022/02/16 09:10:01;;;;;;;22.00;10.68;;;;;;;9.43;70.96;100264.72;4949475;29;20058;-62
2022/02/16 09:12:45;;;;;;;20.85;11.85;;;;;;;9.92;70.79;100280.22;4947134;28;20150;-64
2022/02/16 09:15:30;;;;;;;19.92;12.20;;;;;;;10.30;71.06;100280.72;4950937;29;20111;-64
2022/02/16 09:18:17;;;;;;;20.42;12.00;;;;;;;10.07;70.77;100280.09;4934986;28;20098;-61
2022/02/16 09:21:05;;;;;;;21.35;12.10;;;;;;;10.05;69.63;100276.56;4956791;28;20045;-61
2022/02/16 09:23:50;;;;;;;24.98;11.50;;;;;;;10.01;70.13;100280.97;4937466;28;20106;-63
2022/02/16 09:26:36;;;;;;;23.40;12.15;;;;;;;9.56;74.70;100278.75;4969744;28;20061;-62
2022/02/16 09:29:21;;;;;;;23.52;11.93;;;;;;;9.43;74.20;100285.03;4927823;28;20055;-63
2022/02/16 09:32:06;;;;;;;27.67;13.07;;;;;;;9.30;76.70;100278.94;4966602;28;20085;-63
2022/02/16 09:34:52;;;;;;;24.83;12.65;;;;;;;10.25;72.83;100274.63;4958978;28;20402;-61
2022/02/16 09:37:39;;;;;;;26.80;12.40;;;;;;;10.22;72.77;100274.63;4949902;28;20141;-62
2022/02/16 09:40:24;;;;;;;25.75;13.57;;;;;;;9.75;72.76;100227.41;4918852;29;20097;-63
2022/02/16 09:43:08;;;;;;;28.52;13.93;;;;;;;10.16;71.49;100267.63;4973726;28;20077;-63
2022/02/16 09:45:55;;;;;;;23.42;12.48;;;;;;;9.80;71.81;100259.16;4958678;28;20058;-64
2022/02/16 09:48:41;;;;;;;27.02;12.95;;;;;;;10.09;72.87;100265.06;4938112;28;20547;-63
2022/02/16 09:51:25;;;;;;;28.75;12.95;;;;;;;9.70;75.68;100234.50;4971063;28;20118;-62
2022/02/16 09:54:12;;;;;;;25.10;12.93;;;;;;;10.09;73.42;100244.72;4968976;28;20057;-62
2022/02/16 09:56:57;;;;;;;20.38;12.43;;;;;;;9.53;75.40;100236.41;4959579;28;20057;-63
2022/02/16 09:59:42;;;;;;;23.55;12.85;;;;;;;9.89;75.17;100232.56;4988393;28;20061;-61
2022/02/16 10:02:38;;;;;;;24.70;13.48;;;;;;;10.37;73.27;100234.72;4990120;28;20057;-61
2022/02/16 10:05:34;;;;;;;24.80;12.55;;;;;;;10.63;71.79;100230.84;4990036;28;20120;-59
2022/02/16 10:08:45;;;;;;;27.08;11.70;;;;;;;11.05;71.53;100230.25;4945325;28;20125;-62
2022/02/16 10:11:29;;;;;;;20.45;12.45;;;;;;;11.04;69.58;100233.78;4953426;28;20082;-62
2022/02/16 10:14:29;;;;;;;21.88;13.38;;;;;;;11.34;67.78;100213.88;4983054;28;20057;-57
2022/02/16 10:17:20;;;;;;;21.40;13.50;;;;;;;11.21;70.25;100222.94;4961283;28;20046;-61
2022/02/16 10:20:08;;;;;;;23.63;13.15;;;;;;;10.05;72.79;100205.91;4980133;28;20557;-59
2022/02/16 10:22:56;;;;;;;23.13;13.07;;;;;;;10.29;75.68;100212.72;4954348;28;20057;-62
2022/02/16 10:25:50;;;;;;;22.67;13.00;;;;;;;11.03;73.06;100210.81;4950780;29;20538;-61
2022/02/16 10:28:44;;;;;;;22.85;13.13;;;;;;;10.72;72.76;100214.78;4986473;28;20040;-64
2022/02/16 10:31:41;;;;;;;26.70;14.48;;;;;;;10.68;73.77;100198.97;4979611;28;20042;-62
2022/02/16 10:34:47;;;;;;;25.27;14.13;;;;;;;12.11;68.96;100197.47;4966996;28;20037;-62
2022/02/16 10:37:40;;;;;;;25.42;13.15;;;;;;;12.22;64.23;100207.00;4958565;28;20084;-61
2022/02/16 10:40:25;;;;;;;25.48;13.68;;;;;;;11.77;64.38;100160.03;4977260;28;20176;-60
2022/02/16 10:43:10;;;;;;;25.25;14.20;;;;;;;11.33;67.49;100191.78;4979035;28;20093;-62
2022/02/16 10:45:56;;;;;;;24.45;14.35;;;;;;;11.51;68.92;100195.91;4986580;28;20569;-60
2022/02/16 10:48:40;;;;;;;25.15;15.07;;;;;;;11.82;67.53;100160.81;4986827;28;20058;-59
2022/02/16 10:51:25;;;;;;;;;;;;;;;11.82;67.63;100192.69;4989727;28;20064;-59
2022/02/16 10:54:21;;;;;;;23.25;13.65;;;;;;;11.27;70.83;100173.28;4970076;28;19977;-60
2022/02/16 10:57:07;;;;;;;23.90;14.15;;;;;;;11.35;70.07;100173.16;4976844;28;20076;-64
2022/02/16 10:59:51;;;;;;;25.02;14.75;;;;;;;10.53;71.23;100164.69;4975219;28;20057;-59
2022/02/16 11:02:38;;;;;;;25.08;15.40;;;;;;;10.20;76.70;100139.50;4986815;28;20726;-61
2022/02/16 11:05:24;;;;;;;22.95;13.13;;;;;;;10.10;78.59;100169.66;4976768;28;20058;-60
2022/02/16 11:08:13;;;;;;;24.35;14.90;;;;;;;9.94;79.72;100152.16;4981252;28;20045;-61
2022/02/16 11:11:03;;;;;;;25.00;14.43;;;;;;;10.27;80.23;100156.19;4988111;28;20489;-63
2022/02/16 11:13:49;;;;;;;23.20;13.60;;;;;;;9.67;81.44;100147.16;4989447;28;20041;-62
2022/02/16 11:16:35;;;;;;;28.25;13.85;;;;;;;9.55;83.44;100142.84;4987676;28;20041;-63
2022/02/16 11:19:25;;;;;;;22.75;14.15;;;;;;;9.99;83.52;100147.69;4971537;28;20046;-63
2022/02/16 11:22:21;;;;;;;31.38;13.88;;;;;;;9.85;82.51;100138.16;4970573;28;20134;-61
2022/02/16 11:25:26;;;;;;;23.52;13.38;;;;;;;9.57;85.27;100130.50;4978724;28;20052;-62
2022/02/16 11:28:12;;;;;;;25.38;14.32;;;;;;;9.50;88.02;100110.25;4971007;28;20089;-61
2022/02/16 11:31:00;;;;;;;26.20;14.50;;;;;;;8.54;90.16;100075.84;4987540;28;20084;-62
2022/02/16 11:34:10;;;;;;;21.55;12.95;;;;;;;8.88;92.56;100125.84;4974514;28;20093;-61
2022/02/16 11:37:02;;;;;;;20.92;11.82;;;;;;;8.01;95.91;100131.59;4954069;28;20409;-64
2022/02/16 11:39:49;;;;;;;24.80;13.38;;;;;;;7.76;100.00;100122.00;4968821;28;20050;-63
2022/02/16 11:42:47;;;;;;;29.83;14.30;;;;;;;7.27;100.00;100080.81;4979848;28;20040;-68
2022/02/16 11:45:50;;;;;;;24.75;13.20;;;;;;;7.47;100.00;100128.22;4973338;28;20500;-59
2022/02/16 11:48:42;;;;;;;28.80;14.13;;;;;;;7.14;100.00;100108.06;4972985;28;20542;-60
2022/02/16 11:51:33;;;;;;;27.95;14.70;;;;;;;7.17;100.00;100099.28;4954655;28;20041;-59
2022/02/16 11:54:47;;;;;;;23.83;12.43;;;;;;;7.46;100.00;100100.09;4979307;28;20041;-63
2022/02/16 11:57:38;;;;;;;26.42;13.07;;;;;;;7.38;100.00;100094.84;4959850;28;20065;-62
2022/02/16 12:00:25;;;;;;;19.95;12.10;;;;;;;7.00;100.00;100091.38;4956836;28;20087;-60
2022/02/16 12:03:14;;;;;;;29.75;13.68;;;;;;;6.75;100.00;100091.38;4953423;28;20072;-60
2022/02/16 12:06:08;;;;;;;26.25;12.85;;;;;;;6.73;100.00;100077.34;4968044;28;20077;-60
2022/02/16 12:08:58;;;;;;;28.98;13.38;;;;;;;6.15;100.00;100080.75;4980209;28;20186;-61
2022/02/16 12:11:43;;;;;;;24.48;11.88;;;;;;;5.81;100.00;100071.88;4966304;28;20045;-63
2022/02/16 12:14:28;;;;;;;28.67;12.70;;;;;;;6.18;100.00;100075.50;4986212;28;20560;-62
2022/02/16 12:17:12;;;;;;;23.95;11.85;;;;;;;5.52;100.00;99959.50;4969060;28;20049;-63
2022/02/16 12:19:57;;;;;;;23.95;12.57;;;;;;;6.22;100.00;100066.75;4970689;28;20109;-64
2022/02/16 12:22:44;;;;;;;25.08;13.30;;;;;;;6.24;100.00;100065.88;4983619;28;20061;-65
2022/02/16 12:25:29;;;;;;;23.38;12.35;;;;;;;5.97;100.00;100071.06;4979132;28;20394;-62
2022/02/16 12:28:13;;;;;;;23.35;12.52;;;;;;;5.77;100.00;100058.69;4955533;28;20063;-61
2022/02/16 12:30:58;;;;;;;27.55;13.20;;;;;;;5.63;100.00;100053.38;4986526;28;20093;-61
2022/02/16 12:33:54;;;;;;;22.58;10.60;;;;;;;5.28;100.00;100070.72;4989805;28;20044;-61
2022/02/16 12:36:44;;;;;;;24.63;12.18;;;;;;;5.26;100.00;100042.69;4984814;28;20053;-60
2022/02/16 12:39:29;;;;;;;20.95;10.95;;;;;;;4.78;100.00;100011.69;4967221;28;20483;-61
2022/02/16 12:42:14;;;;;;;21.85;11.38;;;;;;;4.97;100.00;100051.25;4972384;28;20077;-61
2022/02/16 12:44:59;;;;;;;25.88;12.48;;;;;;;4.85;100.00;100045.94;4987345;28;20049;-61
2022/02/16 12:47:45;;;;;;;23.30;10.95;;;;;;;4.57;100.00;100035.19;4988934;28;20097;-60